createdAt,value
2016-04-13T04:43:56.944Z,165
2016-04-13T04:44:15.225Z,165
2016-04-13T04:44:33.494Z,164
2016-04-13T04:44:51.619Z,163
2016-04-13T04:45:09.900Z,161
2016-04-13T04:45:28.166Z,161
2016-04-13T04:45:46.433Z,160
2016-04-13T04:46:04.715Z,160
2016-04-13T04:46:22.980Z,159
2016-04-13T04:46:41.280Z,159
2016-04-13T04:46:59.546Z,160
2016-04-13T04:47:17.827Z,159
2016-04-13T04:47:36.095Z,160
2016-04-13T04:47:54.376Z,160
2016-04-13T04:48:12.657Z,159
2016-04-13T04:48:30.938Z,160
2016-04-13T04:48:49.223Z,160
2016-04-13T04:49:07.488Z,160
2016-04-13T04:49:25.770Z,161
2016-04-13T04:49:44.054Z,161
2016-04-13T04:50:02.335Z,161
2016-04-13T04:50:20.616Z,161
2016-04-13T04:50:38.885Z,163
2016-04-13T04:50:57.166Z,163
2016-04-13T04:51:15.447Z,164
2016-04-13T04:51:33.746Z,164
2016-04-13T04:51:52.028Z,164
2016-04-13T04:52:10.309Z,165
2016-04-13T04:52:28.590Z,167
2016-04-13T04:52:46.859Z,166
2016-04-13T04:53:05.124Z,167
2016-04-13T04:53:23.421Z,167
2016-04-13T04:53:41.720Z,169
2016-04-13T04:54:00.001Z,169
2016-04-13T04:54:18.283Z,170
2016-04-13T04:54:36.536Z,171
2016-04-13T04:54:54.832Z,172
2016-04-13T04:55:13.114Z,172
2016-04-13T04:55:31.414Z,173
2016-04-13T04:55:49.664Z,174
2016-04-13T04:56:07.960Z,175
2016-04-13T04:56:26.242Z,175
2016-04-13T04:56:44.526Z,176
2016-04-13T04:57:02.792Z,177
2016-04-13T04:57:21.073Z,178
2016-04-13T04:57:39.341Z,179
2016-04-13T04:57:57.623Z,179
2016-04-13T04:58:15.920Z,180
2016-04-13T04:58:34.188Z,180
2016-04-13T04:58:52.469Z,181
2016-04-13T04:59:10.735Z,182
2016-04-13T04:59:29.032Z,183
2016-04-13T04:59:47.315Z,184
2016-04-13T05:00:05.596Z,184
2016-04-13T05:00:23.878Z,185
2016-04-13T05:00:42.162Z,186
2016-04-13T05:01:00.459Z,186
2016-04-13T05:01:18.740Z,187
2016-04-13T05:01:37.039Z,188
2016-04-13T05:01:55.289Z,188
2016-04-13T05:02:13.586Z,189
2016-04-13T05:02:31.854Z,190
2016-04-13T05:02:50.136Z,190
2016-04-13T05:03:08.417Z,190
2016-04-13T05:03:26.729Z,191
2016-04-13T05:03:44.998Z,192
2016-04-13T05:04:03.264Z,191
2016-04-13T05:04:21.592Z,193
2016-04-13T05:04:39.719Z,193
2016-04-13T05:04:57.984Z,195
2016-04-13T05:05:16.266Z,196
2016-04-13T05:05:34.550Z,196
2016-04-13T05:05:52.831Z,198
2016-04-13T05:06:11.112Z,198
2016-04-13T05:06:29.425Z,199
2016-04-13T05:06:47.678Z,200
2016-04-13T05:07:05.975Z,201
2016-04-13T05:07:24.256Z,201
2016-04-13T05:07:42.539Z,202
2016-04-13T05:08:00.821Z,204
2016-04-13T05:08:19.086Z,206
2016-04-13T05:08:37.386Z,207
2016-04-13T05:08:55.652Z,208
2016-04-13T05:09:13.777Z,209
2016-04-13T05:09:32.045Z,211
2016-04-13T05:09:50.327Z,211
2016-04-13T05:10:08.577Z,212
2016-04-13T05:10:26.889Z,212
2016-04-13T05:10:45.173Z,213
2016-04-13T05:11:03.455Z,212
2016-04-13T05:11:21.767Z,214
2016-04-13T05:11:40.019Z,214
2016-04-13T05:11:58.300Z,214
2016-04-13T05:12:16.566Z,215
2016-04-13T05:12:34.881Z,217
2016-04-13T05:12:53.147Z,218
2016-04-13T05:13:11.460Z,219
2016-04-13T05:13:29.694Z,220
2016-04-13T05:13:47.962Z,220
2016-04-13T05:14:06.258Z,222
2016-04-13T05:14:24.540Z,224
2016-04-13T05:14:42.824Z,224
2016-04-13T05:15:01.105Z,226
2016-04-13T05:15:19.371Z,228
2016-04-13T05:15:37.670Z,230
2016-04-13T05:15:55.935Z,232
2016-04-13T05:16:14.217Z,233
2016-04-13T05:16:32.501Z,237
2016-04-13T05:16:50.782Z,239
2016-04-13T05:17:09.063Z,244
2016-04-13T05:17:27.345Z,249
2016-04-13T05:17:45.613Z,252
2016-04-13T05:18:03.879Z,254
2016-04-13T05:18:22.160Z,255
2016-04-13T05:18:40.460Z,255
2016-04-13T05:18:58.726Z,252
2016-04-13T05:19:17.007Z,250
2016-04-13T05:19:35.275Z,248
2016-04-13T05:19:53.557Z,246
2016-04-13T05:20:11.838Z,245
2016-04-13T05:20:30.135Z,245
2016-04-13T05:20:48.387Z,245
2016-04-13T05:21:06.684Z,246
2016-04-13T05:21:24.934Z,246
2016-04-13T05:21:43.235Z,247
2016-04-13T05:22:01.500Z,247
2016-04-13T05:22:19.797Z,247
2016-04-13T05:22:37.892Z,249
2016-04-13T05:22:56.189Z,251
2016-04-13T05:23:14.454Z,251
2016-04-13T05:23:32.739Z,252
2016-04-13T05:23:50.848Z,253
2016-04-13T05:24:09.129Z,252
2016-04-13T05:24:27.410Z,253
2016-04-13T05:24:45.695Z,253
2016-04-13T05:25:03.976Z,253
2016-04-13T05:25:22.273Z,252
2016-04-13T05:25:40.557Z,252
2016-04-13T05:25:58.838Z,251
2016-04-13T05:26:17.120Z,253
2016-04-13T05:26:35.388Z,253
2016-04-13T05:26:53.669Z,254
2016-04-13T05:27:11.966Z,256
2016-04-13T05:27:30.232Z,257
2016-04-13T05:27:48.531Z,258
2016-04-13T05:28:06.796Z,259
2016-04-13T05:28:25.062Z,259
2016-04-13T05:28:43.393Z,260
2016-04-13T05:29:01.659Z,259
2016-04-13T05:29:20.018Z,257
2016-04-13T05:29:38.287Z,257
2016-04-13T05:29:56.552Z,258
2016-04-13T05:30:14.849Z,258
2016-04-13T05:30:33.148Z,260
2016-04-13T05:30:51.414Z,262
2016-04-13T05:31:09.695Z,265
2016-04-13T05:31:27.976Z,263
2016-04-13T05:31:46.245Z,262
2016-04-13T05:32:04.557Z,258
2016-04-13T05:32:22.823Z,258
2016-04-13T05:32:41.106Z,257
2016-04-13T05:32:59.388Z,254
2016-04-13T05:33:17.653Z,254
2016-04-13T05:33:35.938Z,253
2016-04-13T05:33:54.204Z,251
2016-04-13T05:34:12.485Z,249
2016-04-13T05:34:30.751Z,247
2016-04-13T05:34:49.034Z,249
2016-04-13T05:35:07.331Z,248
2016-04-13T05:35:25.612Z,248
2016-04-13T05:35:43.881Z,248
2016-04-13T05:36:02.162Z,250
2016-04-13T05:36:20.443Z,249
2016-04-13T05:36:38.711Z,248
2016-04-13T05:36:56.711Z,248
2016-04-13T05:37:14.977Z,247
2016-04-13T05:37:33.261Z,246
2016-04-13T05:37:51.402Z,244
2016-04-13T05:38:09.652Z,244
2016-04-13T05:38:27.933Z,244
2016-04-13T05:38:46.216Z,244
2016-04-13T05:39:04.497Z,241
2016-04-13T05:39:22.763Z,240
2016-04-13T05:39:41.048Z,239
2016-04-13T05:39:59.314Z,239
2016-04-13T05:40:17.595Z,239
2016-04-13T05:40:35.878Z,238
2016-04-13T05:40:54.160Z,239
2016-04-13T05:41:12.456Z,238
2016-04-13T05:41:30.722Z,238
2016-04-13T05:41:49.006Z,241
2016-04-13T05:42:07.272Z,241
2016-04-13T05:42:25.538Z,240
2016-04-13T05:42:43.821Z,241
2016-04-13T05:43:02.102Z,241
2016-04-13T05:43:20.383Z,240
2016-04-13T05:43:38.668Z,241
2016-04-13T05:43:56.949Z,242
2016-04-13T05:44:15.230Z,240
2016-04-13T05:44:33.499Z,241
2016-04-13T05:44:51.764Z,240
2016-04-13T05:45:10.061Z,240
2016-04-13T05:45:28.327Z,241
2016-04-13T05:45:46.610Z,240
2016-04-13T05:46:04.876Z,240
2016-04-13T05:46:23.173Z,240
2016-04-13T05:46:41.441Z,240
2016-04-13T05:46:59.722Z,240
2016-04-13T05:47:18.004Z,239
2016-04-13T05:47:36.288Z,239
2016-04-13T05:47:54.554Z,238
2016-04-13T05:48:12.835Z,237
2016-04-13T05:48:31.116Z,236
2016-04-13T05:48:49.399Z,236
2016-04-13T05:49:07.665Z,234
2016-04-13T05:49:25.946Z,233
2016-04-13T05:49:44.246Z,232
2016-04-13T05:50:02.418Z,231
2016-04-13T05:50:20.684Z,230
2016-04-13T05:50:38.968Z,229
2016-04-13T05:50:57.265Z,228
2016-04-13T05:51:15.530Z,227
2016-04-13T05:51:33.155Z,226
2016-04-13T05:51:51.454Z,225
2016-04-13T05:52:09.720Z,225
2016-04-13T05:52:28.017Z,225
2016-04-13T05:52:46.285Z,225
2016-04-13T05:53:04.551Z,224
2016-04-13T05:53:24.457Z,224
2016-04-13T05:53:42.742Z,225
2016-04-13T05:54:01.008Z,224
2016-04-13T05:54:19.289Z,225
2016-04-13T05:54:37.557Z,224
2016-04-13T05:54:55.838Z,224
2016-04-13T05:55:14.119Z,224
2016-04-13T05:55:32.401Z,224
2016-04-13T05:55:50.684Z,224
2016-04-13T05:56:09.121Z,224
2016-04-13T05:56:27.418Z,223
2016-04-13T05:56:45.687Z,224
2016-04-13T05:57:03.968Z,223
2016-04-13T05:57:22.234Z,224
2016-04-13T05:57:40.518Z,223
2016-04-13T05:57:58.799Z,224
2016-04-13T05:58:17.081Z,224
2016-04-13T05:58:35.349Z,224
2016-04-13T05:58:53.630Z,224
2016-04-13T05:59:11.896Z,225
2016-04-13T05:59:30.209Z,225
2016-04-13T05:59:48.523Z,223
2016-04-13T06:00:10.836Z,223
2016-04-13T06:00:29.101Z,223
2016-04-13T06:00:47.292Z,223
2016-04-13T06:01:05.479Z,223
2016-04-13T06:01:23.745Z,224
2016-04-13T06:01:42.013Z,224
2016-04-13T06:02:00.279Z,224
2016-04-13T06:02:18.560Z,223
2016-04-13T06:02:36.828Z,224
2016-04-13T06:02:54.469Z,223
2016-04-13T06:03:12.750Z,223
2016-04-13T06:03:31.031Z,223
2016-04-13T06:03:49.300Z,222
2016-04-13T06:04:07.425Z,223
2016-04-13T06:04:25.706Z,224
2016-04-13T06:04:44.020Z,224
2016-04-13T06:05:02.427Z,222
2016-04-13T06:05:20.708Z,221
2016-04-13T06:05:38.993Z,221
2016-04-13T06:05:57.259Z,221
2016-04-13T06:06:15.556Z,221
2016-04-13T06:06:33.855Z,219
2016-04-13T06:06:52.136Z,220
2016-04-13T06:07:10.401Z,219
2016-04-13T06:07:28.683Z,220
2016-04-13T06:07:46.967Z,220
2016-04-13T06:08:05.248Z,220
2016-04-13T06:08:23.529Z,220
2016-04-13T06:08:41.798Z,221
2016-04-13T06:09:00.079Z,220
2016-04-13T06:09:18.345Z,220
2016-04-13T06:09:36.628Z,221
2016-04-13T06:09:54.909Z,221
2016-04-13T06:10:13.206Z,221
2016-04-13T06:10:31.488Z,221
2016-04-13T06:10:49.756Z,221
2016-04-13T06:11:07.881Z,221
2016-04-13T06:11:26.194Z,223
2016-04-13T06:11:44.478Z,223
2016-04-13T06:12:02.775Z,222
2016-04-13T06:12:21.056Z,223
2016-04-13T06:12:39.340Z,224
2016-04-13T06:12:57.622Z,224
2016-04-13T06:13:15.918Z,224
2016-04-13T06:13:34.202Z,224
2016-04-13T06:13:52.545Z,224
2016-04-13T06:14:10.795Z,224
2016-04-13T06:14:29.108Z,225
2016-04-13T06:14:47.266Z,225
2016-04-13T06:15:05.579Z,226
2016-04-13T06:15:23.844Z,225
2016-04-13T06:15:42.144Z,226
2016-04-13T06:16:00.410Z,226
2016-04-13T06:16:18.722Z,227
2016-04-13T06:16:37.007Z,227
2016-04-13T06:16:55.272Z,228
2016-04-13T06:17:13.553Z,228
2016-04-13T06:17:31.803Z,229
2016-04-13T06:17:50.102Z,230
2016-04-13T06:18:08.368Z,230
2016-04-13T06:18:26.634Z,231
2016-04-13T06:18:44.933Z,232
2016-04-13T06:19:03.199Z,232
2016-04-13T06:19:21.496Z,234
2016-04-13T06:19:39.765Z,235
2016-04-13T06:19:58.046Z,235
2016-04-13T06:20:18.390Z,236
2016-04-13T06:20:36.674Z,237
2016-04-13T06:20:54.939Z,238
2016-04-13T06:21:13.236Z,238
2016-04-13T06:21:31.518Z,239
2016-04-13T06:21:49.832Z,239
2016-04-13T06:22:08.207Z,241
2016-04-13T06:22:26.395Z,241
2016-04-13T06:22:44.664Z,241
2016-04-13T06:23:02.945Z,242
2016-04-13T06:23:21.227Z,243
2016-04-13T06:23:39.510Z,244
2016-04-13T06:23:57.776Z,245
2016-04-13T06:24:16.057Z,245
2016-04-13T06:24:34.338Z,246
2016-04-13T06:24:52.621Z,247
2016-04-13T06:25:11.028Z,248
2016-04-13T06:25:29.309Z,250
2016-04-13T06:25:47.593Z,251
2016-04-13T06:26:05.890Z,251
2016-04-13T06:26:24.171Z,252
2016-04-13T06:26:42.455Z,253
2016-04-13T06:27:00.737Z,254
2016-04-13T06:27:19.002Z,254
2016-04-13T06:27:37.130Z,255
2016-04-13T06:27:55.396Z,256
2016-04-13T06:28:13.677Z,257
2016-04-13T06:28:31.943Z,258
2016-04-13T06:28:49.570Z,258
2016-04-13T06:29:07.867Z,259
2016-04-13T06:29:26.039Z,260
2016-04-13T06:29:44.307Z,261
2016-04-13T06:30:02.573Z,261
2016-04-13T06:30:20.838Z,263
2016-04-13T06:30:39.123Z,264
2016-04-13T06:30:57.404Z,265
2016-04-13T06:31:15.670Z,266
2016-04-13T06:31:33.951Z,267
2016-04-13T06:31:52.218Z,268
2016-04-13T06:32:10.500Z,269
2016-04-13T06:32:28.828Z,270
2016-04-13T06:32:47.112Z,272
2016-04-13T06:33:05.425Z,272
2016-04-13T06:33:23.721Z,273
2016-04-13T06:33:42.005Z,274
2016-04-13T06:34:00.286Z,276
2016-04-13T06:34:18.567Z,277
2016-04-13T06:34:36.836Z,279
2016-04-13T06:34:55.117Z,281
2016-04-13T06:35:13.383Z,281
2016-04-13T06:35:31.664Z,283
2016-04-13T06:35:49.948Z,284
2016-04-13T06:36:08.229Z,285
2016-04-13T06:36:26.354Z,285
2016-04-13T06:36:44.638Z,287
2016-04-13T06:37:02.794Z,287
2016-04-13T06:37:21.028Z,288
2016-04-13T06:37:39.329Z,290
2016-04-13T06:37:57.610Z,291
2016-04-13T06:38:15.892Z,292
2016-04-13T06:38:34.157Z,294
2016-04-13T06:38:52.456Z,295
2016-04-13T06:39:10.722Z,297
2016-04-13T06:39:28.987Z,297
2016-04-13T06:39:47.271Z,299
2016-04-13T06:40:05.599Z,301
2016-04-13T06:40:23.864Z,303
2016-04-13T06:40:42.150Z,304
2016-04-13T06:41:00.431Z,307
2016-04-13T06:41:18.712Z,308
2016-04-13T06:41:37.011Z,311
2016-04-13T06:41:55.308Z,314
2016-04-13T06:42:13.558Z,316
2016-04-13T06:42:31.824Z,319
2016-04-13T06:42:50.108Z,324
2016-04-13T06:43:08.389Z,320
2016-04-13T06:43:26.702Z,323
2016-04-13T06:43:44.985Z,323
2016-04-13T06:44:03.266Z,324
2016-04-13T06:44:21.563Z,324
2016-04-13T06:44:39.847Z,324
2016-04-13T06:44:58.128Z,325
2016-04-13T06:45:16.425Z,330
2016-04-13T06:45:34.707Z,331
2016-04-13T06:45:52.960Z,332
2016-04-13T06:46:11.241Z,334
2016-04-13T06:46:29.522Z,334
2016-04-13T06:46:47.806Z,336
2016-04-13T06:47:06.072Z,341
2016-04-13T06:47:24.369Z,344
2016-04-13T06:47:42.652Z,346
2016-04-13T06:48:00.918Z,347
2016-04-13T06:48:19.199Z,347
2016-04-13T06:48:37.499Z,347
2016-04-13T06:48:55.780Z,346
2016-04-13T06:49:14.061Z,349
2016-04-13T06:49:32.327Z,350
2016-04-13T06:49:50.610Z,351
2016-04-13T06:50:08.876Z,355
2016-04-13T06:50:27.157Z,357
2016-04-13T06:50:45.442Z,362
2016-04-13T06:51:03.708Z,367
2016-04-13T06:51:21.989Z,367
2016-04-13T06:51:40.304Z,368
2016-04-13T06:51:58.397Z,370
2016-04-13T06:52:16.663Z,372
2016-04-13T06:52:34.944Z,373
2016-04-13T06:52:53.213Z,370
2016-04-13T06:53:11.479Z,368
2016-04-13T06:53:29.760Z,366
2016-04-13T06:53:48.043Z,365
2016-04-13T06:54:06.309Z,359
2016-04-13T06:54:24.574Z,355
2016-04-13T06:54:42.734Z,350
2016-04-13T06:55:01.015Z,346
2016-04-13T06:55:19.296Z,346
2016-04-13T06:55:37.565Z,346
2016-04-13T06:55:55.830Z,347
2016-04-13T06:56:14.127Z,348
2016-04-13T06:56:32.393Z,349
2016-04-13T06:56:50.724Z,351
2016-04-13T06:57:09.052Z,349
2016-04-13T06:57:27.318Z,347
2016-04-13T06:57:45.648Z,345
2016-04-13T06:58:03.929Z,342
2016-04-13T06:58:22.210Z,343
2016-04-13T06:58:40.479Z,344
2016-04-13T06:58:58.745Z,346
2016-04-13T06:59:17.026Z,348
2016-04-13T06:59:35.307Z,349
2016-04-13T06:59:53.591Z,350
2016-04-13T07:00:11.857Z,352
2016-04-13T07:00:30.154Z,350
2016-04-13T07:00:48.421Z,348
2016-04-13T07:01:06.703Z,353
2016-04-13T07:01:24.968Z,354
2016-04-13T07:01:43.237Z,350
2016-04-13T07:02:01.518Z,350
2016-04-13T07:02:19.799Z,350
2016-04-13T07:02:38.068Z,348
2016-04-13T07:02:56.365Z,349
2016-04-13T07:03:14.631Z,345
2016-04-13T07:03:32.912Z,342
2016-04-13T07:03:51.211Z,341
2016-04-13T07:04:09.320Z,342
2016-04-13T07:04:27.601Z,342
2016-04-13T07:04:45.870Z,340
2016-04-13T07:05:04.136Z,342
2016-04-13T07:05:22.432Z,341
2016-04-13T07:05:40.685Z,341
2016-04-13T07:05:58.967Z,342
2016-04-13T07:06:17.248Z,347
2016-04-13T07:06:35.514Z,350
2016-04-13T07:06:53.797Z,352
2016-04-13T07:07:11.797Z,358
2016-04-13T07:07:30.078Z,363
2016-04-13T07:07:48.362Z,364
2016-04-13T07:08:06.487Z,370
2016-04-13T07:08:24.753Z,371
2016-04-13T07:08:43.052Z,371
2016-04-13T07:09:01.317Z,370
2016-04-13T07:09:19.442Z,372
2016-04-13T07:09:37.727Z,373
2016-04-13T07:09:55.852Z,373
2016-04-13T07:10:14.149Z,375
2016-04-13T07:10:32.430Z,377
2016-04-13T07:10:50.714Z,379
2016-04-13T07:11:08.855Z,381
2016-04-13T07:11:27.120Z,380
2016-04-13T07:11:45.450Z,380
2016-04-13T07:12:03.763Z,379
2016-04-13T07:12:22.044Z,378
2016-04-13T07:12:40.360Z,379
2016-04-13T07:12:58.657Z,378
2016-04-13T07:13:16.266Z,377
2016-04-13T07:13:34.547Z,376
2016-04-13T07:13:52.831Z,377
2016-04-13T07:14:11.128Z,376
2016-04-13T07:14:29.363Z,376
2016-04-13T07:14:47.647Z,374
2016-04-13T07:15:05.928Z,374
2016-04-13T07:15:24.209Z,374
2016-04-13T07:15:42.494Z,373
2016-04-13T07:16:00.775Z,373
2016-04-13T07:16:19.041Z,373
2016-04-13T07:16:37.355Z,374
2016-04-13T07:16:55.621Z,373
2016-04-13T07:17:13.902Z,373
2016-04-13T07:17:32.183Z,373
2016-04-13T07:17:50.483Z,372
2016-04-13T07:18:08.764Z,372
2016-04-13T07:18:27.061Z,371
2016-04-13T07:18:45.330Z,371
2016-04-13T07:19:03.611Z,371
2016-04-13T07:19:21.877Z,371
2016-04-13T07:19:40.176Z,372
2016-04-13T07:19:58.441Z,371
2016-04-13T07:20:16.707Z,371
2016-04-13T07:20:34.988Z,370
2016-04-13T07:20:53.289Z,369
2016-04-13T07:21:11.570Z,369
2016-04-13T07:21:29.851Z,369
2016-04-13T07:21:48.135Z,369
2016-04-13T07:22:06.416Z,370
2016-04-13T07:22:24.682Z,369
2016-04-13T07:22:42.981Z,370
2016-04-13T07:23:01.263Z,369
2016-04-13T07:23:19.528Z,368
2016-04-13T07:23:37.828Z,368
2016-04-13T07:23:56.078Z,368
2016-04-13T07:24:14.391Z,368
2016-04-13T07:24:32.672Z,367
2016-04-13T07:24:50.940Z,368
2016-04-13T07:25:09.205Z,368
2016-04-13T07:25:27.486Z,368
2016-04-13T07:25:45.771Z,369
2016-04-13T07:26:04.052Z,369
2016-04-13T07:26:22.333Z,370
2016-04-13T07:26:40.585Z,370
2016-04-13T07:26:58.866Z,369
2016-04-13T07:27:17.148Z,369
2016-04-13T07:27:35.273Z,370
2016-04-13T07:27:53.541Z,369
2016-04-13T07:28:11.823Z,368
2016-04-13T07:28:30.088Z,368
2016-04-13T07:28:48.372Z,369
2016-04-13T07:29:06.654Z,369
2016-04-13T07:29:24.951Z,371
2016-04-13T07:29:43.234Z,371
2016-04-13T07:30:01.499Z,372
2016-04-13T07:30:19.781Z,373
2016-04-13T07:30:38.049Z,373
2016-04-13T07:30:56.252Z,375
2016-04-13T07:31:14.534Z,376
2016-04-13T07:31:32.815Z,378
2016-04-13T07:31:51.114Z,379
2016-04-13T07:32:09.395Z,381
2016-04-13T07:32:27.661Z,382
2016-04-13T07:32:46.179Z,383
2016-04-13T07:33:04.445Z,383
2016-04-13T07:33:22.742Z,385
2016-04-13T07:33:41.010Z,385
2016-04-13T07:33:59.292Z,386
2016-04-13T07:34:17.589Z,386
2016-04-13T07:34:35.885Z,387
2016-04-13T07:34:54.184Z,388
2016-04-13T07:35:12.450Z,388
2016-04-13T07:35:30.731Z,388
2016-04-13T07:35:49.016Z,389
2016-04-13T07:36:07.298Z,390
2016-04-13T07:36:25.579Z,390
2016-04-13T07:36:43.847Z,392
2016-04-13T07:37:01.847Z,392
2016-04-13T07:37:20.112Z,392
2016-04-13T07:37:38.381Z,392
2016-04-13T07:37:56.662Z,392
2016-04-13T07:38:14.943Z,391
2016-04-13T07:38:33.209Z,390
2016-04-13T07:38:51.493Z,390
2016-04-13T07:39:09.774Z,389
2016-04-13T07:39:28.040Z,388
2016-04-13T07:39:46.323Z,386
2016-04-13T07:40:04.448Z,386
2016-04-13T07:40:22.745Z,384
2016-04-13T07:40:41.045Z,383
2016-04-13T07:40:59.311Z,382
2016-04-13T07:41:17.608Z,382
2016-04-13T07:41:35.873Z,381
2016-04-13T07:41:54.142Z,380
2016-04-13T07:42:12.407Z,380
2016-04-13T07:42:30.689Z,381
2016-04-13T07:42:48.956Z,379
2016-04-13T07:43:07.238Z,378
2016-04-13T07:43:25.519Z,378
2016-04-13T07:43:43.819Z,377
2016-04-13T07:44:02.069Z,377
2016-04-13T07:44:20.350Z,376
2016-04-13T07:44:38.602Z,375
2016-04-13T07:44:56.883Z,376
2016-04-13T07:45:15.164Z,375
2016-04-13T07:45:33.477Z,375
2016-04-13T07:45:51.714Z,374
2016-04-13T07:46:09.996Z,375
2016-04-13T07:46:28.261Z,374
2016-04-13T07:46:46.530Z,376
2016-04-13T07:47:04.811Z,376
2016-04-13T07:47:23.077Z,375
2016-04-13T07:47:41.376Z,375
2016-04-13T07:47:59.657Z,374
2016-04-13T07:48:17.954Z,374
2016-04-13T07:48:36.251Z,374
2016-04-13T07:48:54.504Z,375
2016-04-13T07:49:12.785Z,374
2016-04-13T07:49:31.066Z,374
2016-04-13T07:49:49.350Z,374
2016-04-13T07:50:07.632Z,375
2016-04-13T07:50:25.897Z,376
2016-04-13T07:50:44.166Z,376
2016-04-13T07:51:02.447Z,376
2016-04-13T07:51:20.713Z,376
2016-04-13T07:51:38.997Z,377
2016-04-13T07:51:57.278Z,378
2016-04-13T07:52:15.544Z,379
2016-04-13T07:52:33.809Z,378
2016-04-13T07:52:52.093Z,378
2016-04-13T07:53:10.374Z,379
2016-04-13T07:53:28.655Z,379
2016-04-13T07:53:46.939Z,379
2016-04-13T07:54:05.189Z,379
2016-04-13T07:54:23.486Z,378
2016-04-13T07:54:41.832Z,378
2016-04-13T07:55:00.113Z,379
2016-04-13T07:55:18.426Z,378
2016-04-13T07:55:36.663Z,379
2016-04-13T07:55:54.944Z,379
2016-04-13T07:56:13.210Z,379
2016-04-13T07:56:31.507Z,379
2016-04-13T07:56:49.682Z,380
2016-04-13T07:57:07.963Z,380
2016-04-13T07:57:26.244Z,380
2016-04-13T07:57:44.543Z,381
2016-04-13T07:58:02.809Z,380
2016-04-13T07:58:21.074Z,380
2016-04-13T07:58:39.344Z,380
2016-04-13T07:58:57.625Z,380
2016-04-13T07:59:15.907Z,380
2016-04-13T07:59:34.203Z,379
2016-04-13T07:59:52.471Z,380
2016-04-13T08:00:10.768Z,380
2016-04-13T08:00:29.080Z,380
2016-04-13T08:00:47.380Z,381
2016-04-13T08:01:05.662Z,381
2016-04-13T08:01:23.927Z,382
2016-04-13T08:01:42.196Z,383
2016-04-13T08:02:00.477Z,383
2016-04-13T08:02:18.743Z,383
2016-04-13T08:02:37.026Z,385
2016-04-13T08:02:55.323Z,385
2016-04-13T08:03:13.588Z,386
2016-04-13T08:03:31.870Z,387
2016-04-13T08:03:50.138Z,389
2016-04-13T08:04:08.466Z,390
2016-04-13T08:04:26.748Z,390
2016-04-13T08:04:45.047Z,390
2016-04-13T08:05:03.343Z,391
2016-04-13T08:05:21.672Z,391
2016-04-13T08:05:39.940Z,391
2016-04-13T08:05:58.237Z,391
2016-04-13T08:06:16.503Z,391
2016-04-13T08:06:34.784Z,391
2016-04-13T08:06:53.068Z,391
2016-04-13T08:07:11.240Z,392
2016-04-13T08:07:29.474Z,395
2016-04-13T08:07:47.773Z,397
2016-04-13T08:08:06.055Z,399
2016-04-13T08:08:24.200Z,401
2016-04-13T08:08:42.312Z,403
2016-04-13T08:09:00.594Z,403
2016-04-13T08:09:18.891Z,405
2016-04-13T08:09:37.143Z,407
2016-04-13T08:09:55.408Z,407
2016-04-13T08:10:13.674Z,407
2016-04-13T08:10:31.986Z,406
2016-04-13T08:10:50.239Z,405
2016-04-13T08:11:08.521Z,402
2016-04-13T08:11:26.192Z,403
2016-04-13T08:11:44.461Z,402
2016-04-13T08:12:02.742Z,400
2016-04-13T08:12:21.008Z,401
2016-04-13T08:12:39.291Z,403
2016-04-13T08:12:57.557Z,405
2016-04-13T08:13:15.838Z,409
2016-04-13T08:13:34.135Z,412
2016-04-13T08:13:52.420Z,414
2016-04-13T08:14:10.686Z,416
2016-04-13T08:14:28.967Z,417
2016-04-13T08:14:47.266Z,418
2016-04-13T08:15:05.532Z,418
2016-04-13T08:15:23.860Z,417
2016-04-13T08:15:42.160Z,417
2016-04-13T08:16:00.425Z,415
2016-04-13T08:16:18.706Z,413
2016-04-13T08:16:36.975Z,412
2016-04-13T08:16:55.256Z,410
2016-04-13T08:17:13.553Z,409
2016-04-13T08:17:31.819Z,406
2016-04-13T08:17:49.977Z,406
2016-04-13T08:18:08.258Z,405
2016-04-13T08:18:26.508Z,404
2016-04-13T08:18:44.793Z,406
2016-04-13T08:19:03.058Z,406
2016-04-13T08:19:21.324Z,407
2016-04-13T08:19:39.639Z,409
2016-04-13T08:19:57.921Z,410
2016-04-13T08:20:16.186Z,410
2016-04-13T08:20:34.467Z,411
2016-04-13T08:20:52.641Z,412
2016-04-13T08:21:10.923Z,412
2016-04-13T08:21:29.204Z,411
2016-04-13T08:21:47.472Z,411
2016-04-13T08:22:05.613Z,411
2016-04-13T08:22:23.972Z,410
2016-04-13T08:22:42.163Z,409
2016-04-13T08:23:00.444Z,407
2016-04-13T08:23:18.725Z,407
2016-04-13T08:23:37.010Z,406
2016-04-13T08:23:55.291Z,406
2016-04-13T08:24:13.557Z,407
2016-04-13T08:24:31.838Z,407
2016-04-13T08:24:50.122Z,407
2016-04-13T08:25:08.403Z,405
2016-04-13T08:25:26.669Z,406
2016-04-13T08:25:44.952Z,407
2016-04-13T08:26:03.233Z,407
2016-04-13T08:26:21.515Z,408
2016-04-13T08:26:39.783Z,410
2016-04-13T08:26:57.908Z,413
2016-04-13T08:27:16.190Z,414
2016-04-13T08:27:34.471Z,416
2016-04-13T08:27:52.754Z,418
2016-04-13T08:28:11.035Z,417
2016-04-13T08:28:29.363Z,411
2016-04-13T08:28:47.632Z,412
2016-04-13T08:29:05.976Z,408
2016-04-13T08:29:24.241Z,397
2016-04-13T08:29:42.463Z,350
2016-04-13T08:30:00.729Z,352
2016-04-13T08:30:18.994Z,396
2016-04-13T08:30:37.309Z,383
2016-04-13T08:30:55.590Z,382
2016-04-13T08:31:13.856Z,392
2016-04-13T08:31:32.231Z,392
2016-04-13T08:31:50.515Z,378
2016-04-13T08:32:09.343Z,395
2016-04-13T08:32:27.703Z,386
2016-04-13T08:32:45.970Z,400
2016-04-13T08:33:03.673Z,400
2016-04-13T08:33:22.048Z,404
2016-04-13T08:33:40.364Z,405
2016-04-13T08:33:58.645Z,409
2016-04-13T08:34:16.973Z,410
2016-04-13T08:34:35.223Z,411
2016-04-13T08:34:53.523Z,408
2016-04-13T08:35:11.632Z,409
2016-04-13T08:35:29.914Z,409
2016-04-13T08:35:48.197Z,409
2016-04-13T08:36:06.478Z,406
2016-04-13T08:36:24.759Z,404
2016-04-13T08:36:43.045Z,401
2016-04-13T08:37:01.326Z,400
2016-04-13T08:37:19.295Z,401
2016-04-13T08:37:37.562Z,401
2016-04-13T08:37:55.844Z,402
2016-04-13T08:38:14.125Z,402
2016-04-13T08:38:32.265Z,400
2016-04-13T08:38:50.534Z,397
2016-04-13T08:39:08.815Z,399
2016-04-13T08:39:27.097Z,397
2016-04-13T08:39:45.364Z,398
2016-04-13T08:40:03.645Z,400
2016-04-13T08:40:21.911Z,401
2016-04-13T08:40:40.102Z,398
2016-04-13T08:40:58.352Z,396
2016-04-13T08:41:16.633Z,395
2016-04-13T08:41:34.914Z,395
2016-04-13T08:41:53.214Z,396
2016-04-13T08:42:11.480Z,392
2016-04-13T08:42:29.730Z,385
2016-04-13T08:42:48.013Z,373
2016-04-13T08:43:06.310Z,341
2016-04-13T08:43:24.575Z,351
2016-04-13T08:43:42.860Z,393
2016-04-13T08:44:01.141Z,395
2016-04-13T08:44:19.422Z,395
2016-04-13T08:44:37.690Z,395
2016-04-13T08:44:55.955Z,394
2016-04-13T08:45:14.221Z,393
2016-04-13T08:45:32.518Z,389
2016-04-13T08:45:50.802Z,395
2016-04-13T08:46:09.083Z,398
2016-04-13T08:46:27.380Z,395
2016-04-13T08:46:45.664Z,396
2016-04-13T08:47:03.930Z,396
2016-04-13T08:47:22.211Z,397
2016-04-13T08:47:40.511Z,402
2016-04-13T08:47:58.792Z,404
2016-04-13T08:48:17.074Z,406
2016-04-13T08:48:35.339Z,410
2016-04-13T08:48:53.608Z,413
2016-04-13T08:49:11.905Z,415
2016-04-13T08:49:30.170Z,416
2016-04-13T08:49:48.455Z,416
2016-04-13T08:50:06.736Z,416
2016-04-13T08:50:25.033Z,415
2016-04-13T08:50:43.316Z,417
2016-04-13T08:51:01.597Z,417
2016-04-13T08:51:19.879Z,417
2016-04-13T08:51:38.147Z,417
2016-04-13T08:51:56.413Z,418
2016-04-13T08:52:14.850Z,417
2016-04-13T08:52:33.132Z,419
2016-04-13T08:52:51.477Z,422
2016-04-13T08:53:09.743Z,423
2016-04-13T08:53:28.024Z,421
2016-04-13T08:53:46.308Z,423
2016-04-13T08:54:04.449Z,424
2016-04-13T08:54:22.746Z,425
2016-04-13T08:54:41.015Z,427
2016-04-13T08:54:59.327Z,430
2016-04-13T08:55:17.608Z,430
2016-04-13T08:55:35.890Z,431